KBMQ

Burnet Municipal Kate Craddock Field Airport

Burnet, Texas, USA
METAR KBMQ 231953Z AUTO 04005KT 10SM OVC034 18/08 A3017 RMK AO2 SLP208 T01830083
Observed Flight Rules
Oct-23 @ 19:53 UTC (57 minutes ago) Visual Flight Rules
Wind Visibility Clouds
40° at 5 knots 10 miles
  • Overcast at 3,400' AGL
Temperatures Readings
Current 18°C / 64°F
Dewpoint 8°C / 46°F
Humidity 52%
Altimeter 30.17" Hg
Pressure 1020.8 hPa
Elevation 389
METAR KBMQ 231953Z AUTO 04005KT 10SM OVC034 18/08 A3017 RMK AO2 SLP208 T01830083
Observed Flight Rules
Oct-23 @ 19:53 UTC
(57 minutes ago)
VFR
Wind Visibility
40° at 5 knots 10 miles
Clouds
  • Overcast at 3,400' AGL
Temperature Dewpoint
18°C / 64°F 8°C / 46°F
Humidity Altimeter Pressure
52% 30.17" Hg 1020.8 hPa